createdAt,value
2018-05-14T00:00:22.533Z,69.50
2018-05-14T00:02:57.194Z,70.80
2018-05-14T00:05:31.542Z,69.00
2018-05-14T00:08:05.956Z,71.97
2018-05-14T00:10:40.255Z,70.97
2018-05-14T00:13:14.581Z,68.20
2018-05-14T00:15:49.019Z,71.00
2018-05-14T00:18:23.454Z,72.20
2018-05-14T00:20:57.862Z,66.97
2018-05-14T00:23:32.195Z,66.53
2018-05-14T00:26:06.671Z,65.17
2018-05-14T00:28:41.172Z,58.33
2018-05-14T00:31:15.638Z,67.27
2018-05-14T00:33:50.086Z,70.73
2018-05-14T00:36:25.277Z,65.27
2018-05-14T00:39:00.654Z,70.63
2018-05-14T00:41:35.864Z,72.27
2018-05-14T00:44:10.160Z,65.30
2018-05-14T00:46:44.555Z,73.80
2018-05-14T00:49:19.157Z,65.17
2018-05-14T00:51:53.496Z,60.70
2018-05-14T00:54:27.994Z,63.73
2018-05-14T00:57:02.478Z,65.47
2018-05-14T00:59:36.809Z,55.90
2018-05-14T01:02:11.161Z,59.87
2018-05-14T01:04:45.550Z,55.50
2018-05-14T01:07:19.918Z,59.43
2018-05-14T01:09:54.421Z,60.13
2018-05-14T01:12:28.943Z,58.60
2018-05-14T01:15:03.448Z,53.80
2018-05-14T01:17:37.743Z,53.43
2018-05-14T01:20:12.188Z,52.87
2018-05-14T01:22:47.316Z,63.07
2018-05-14T01:25:22.110Z,48.20
2018-05-14T01:27:56.606Z,52.83
2018-05-14T01:30:31.069Z,58.30
2018-05-14T01:33:05.547Z,52.80
2018-05-14T01:35:40.832Z,55.30
2018-05-14T01:38:17.172Z,52.00
2018-05-14T01:40:51.581Z,52.10
2018-05-14T01:43:25.991Z,50.73
2018-05-14T01:46:00.342Z,57.57
2018-05-14T01:48:35.521Z,53.67
2018-05-14T01:51:10.021Z,51.70
2018-05-14T01:53:44.586Z,51.77
2018-05-14T01:56:19.102Z,48.50
2018-05-14T01:58:54.584Z,51.30
2018-05-14T02:01:28.959Z,44.70
2018-05-14T02:04:03.303Z,45.63
2018-05-14T02:06:37.802Z,48.97
2018-05-14T02:09:12.312Z,49.50
2018-05-14T02:11:46.784Z,46.33
2018-05-14T02:14:21.104Z,50.03
2018-05-14T02:16:55.412Z,50.57
2018-05-14T02:19:29.689Z,42.20
2018-05-14T02:22:04.290Z,46.43
2018-05-14T02:24:38.756Z,45.57
2018-05-14T02:27:13.183Z,44.20
2018-05-14T02:29:47.606Z,47.27
2018-05-14T02:32:22.087Z,47.70
2018-05-14T02:34:56.523Z,42.23
2018-05-14T02:37:31.089Z,45.40
2018-05-14T02:40:05.807Z,46.53
2018-05-14T02:42:40.140Z,49.87
2018-05-14T02:45:14.459Z,44.23
2018-05-14T02:47:48.818Z,44.83
2018-05-14T02:50:23.260Z,41.13
2018-05-14T02:52:57.560Z,41.27
2018-05-14T02:55:31.929Z,40.70
2018-05-14T02:58:06.385Z,42.70
2018-05-14T03:00:40.679Z,42.23
2018-05-14T03:03:15.075Z,41.63
2018-05-14T03:05:49.590Z,43.13
2018-05-14T03:08:24.037Z,43.23
2018-05-14T03:10:58.431Z,47.93
2018-05-14T03:13:32.949Z,40.10
2018-05-14T03:16:07.482Z,44.13
2018-05-14T03:18:41.784Z,42.17
2018-05-14T03:21:16.178Z,38.53
2018-05-14T03:23:50.656Z,45.07
2018-05-14T03:26:25.026Z,42.30
2018-05-14T03:28:59.494Z,38.97
2018-05-14T03:31:34.098Z,42.27
2018-05-14T03:34:08.662Z,42.33
2018-05-14T03:36:43.277Z,41.83
2018-05-14T03:39:17.796Z,39.13
2018-05-14T03:41:52.187Z,42.97
2018-05-14T03:44:26.556Z,42.70
2018-05-14T03:47:01.017Z,37.57
2018-05-14T03:49:35.333Z,42.47
2018-05-14T03:52:10.002Z,44.60
2018-05-14T03:54:44.415Z,49.40
2018-05-14T04:00:40.453Z,41.73
2018-05-14T04:03:27.570Z,43.30
2018-05-14T04:06:13.922Z,44.83
2018-05-14T04:08:48.254Z,41.53
2018-05-14T04:11:22.616Z,41.77
2018-05-14T04:13:57.047Z,41.27
2018-05-14T04:16:31.644Z,46.70
2018-05-14T04:19:05.843Z,44.07
2018-05-14T04:21:43.060Z,41.93
2018-05-14T04:24:18.256Z,48.57
2018-05-14T04:26:54.226Z,45.30
2018-05-14T04:29:28.684Z,48.03
2018-05-14T04:32:02.981Z,46.30
2018-05-14T04:34:37.288Z,48.37
2018-05-14T04:37:11.592Z,45.30
2018-05-14T04:39:46.075Z,46.03
2018-05-14T04:42:20.678Z,44.50
2018-05-14T04:44:55.900Z,50.20
2018-05-14T04:47:31.057Z,44.00
2018-05-14T04:50:05.468Z,42.17
2018-05-14T04:52:39.893Z,43.43
2018-05-14T04:55:15.129Z,43.30
2018-05-14T04:57:50.340Z,48.07
2018-05-14T05:00:24.795Z,49.47
2018-05-14T05:02:59.204Z,43.07
2018-05-14T05:05:33.680Z,43.23
2018-05-14T05:08:08.007Z,43.00
2018-05-14T05:10:42.466Z,43.70
2018-05-14T05:13:17.099Z,44.40
2018-05-14T05:15:51.382Z,41.17
2018-05-14T05:18:25.747Z,40.30
2018-05-14T05:21:00.839Z,39.20
2018-05-14T05:23:36.093Z,39.33
2018-05-14T05:26:10.648Z,45.63
2018-05-14T05:28:45.145Z,38.47
2018-05-14T05:31:19.576Z,41.03
2018-05-14T05:33:54.008Z,43.97
2018-05-14T05:36:28.322Z,38.30
2018-05-14T05:39:03.044Z,41.93
2018-05-14T05:41:37.400Z,39.70
2018-05-14T05:44:11.689Z,45.03
2018-05-14T05:46:46.009Z,42.10
2018-05-14T05:49:20.331Z,42.37
2018-05-14T05:51:54.958Z,40.30
2018-05-14T05:54:29.436Z,40.83
2018-05-14T05:57:03.977Z,41.27
2018-05-14T05:59:38.285Z,42.20
2018-05-14T06:02:12.592Z,41.37
2018-05-14T06:04:46.949Z,42.03
2018-05-14T06:07:21.361Z,40.57
2018-05-14T06:09:55.790Z,45.37
2018-05-14T06:12:30.070Z,39.77
2018-05-14T06:15:05.322Z,37.93
2018-05-14T06:17:39.789Z,41.03
2018-05-14T06:20:14.225Z,41.60
2018-05-14T06:22:48.607Z,38.70
2018-05-14T06:25:23.025Z,50.37
2018-05-14T06:27:57.540Z,39.97
2018-05-14T06:30:31.854Z,44.87
2018-05-14T06:33:06.511Z,36.57
2018-05-14T06:35:40.932Z,39.50
2018-05-14T06:38:15.417Z,41.90
2018-05-14T06:40:49.830Z,40.40
2018-05-14T06:43:24.357Z,38.63
2018-05-14T06:45:58.769Z,41.03
2018-05-14T06:48:33.186Z,33.80
2018-05-14T06:51:07.563Z,29.50
2018-05-14T06:53:42.030Z,41.03
2018-05-14T06:56:17.153Z,40.53
2018-05-14T06:58:51.614Z,35.73
2018-05-14T07:01:25.983Z,37.73
2018-05-14T07:04:00.420Z,35.90
2018-05-14T07:06:34.693Z,37.73
2018-05-14T07:09:09.767Z,39.23
2018-05-14T07:11:44.087Z,37.73
2018-05-14T07:14:18.417Z,40.53
2018-05-14T07:16:52.750Z,36.53
2018-05-14T07:19:27.476Z,35.67
2018-05-14T07:22:01.783Z,32.37
2018-05-14T07:24:36.315Z,32.77
2018-05-14T07:27:10.781Z,31.70
2018-05-14T07:29:45.068Z,33.17
2018-05-14T07:32:20.992Z,34.13
2018-05-14T07:34:55.362Z,28.67
2018-05-14T07:37:29.644Z,34.83
2018-05-14T07:40:04.013Z,30.97
2018-05-14T07:42:39.097Z,31.97
2018-05-14T07:45:14.318Z,28.03
2018-05-14T07:47:48.707Z,30.07
2018-05-14T07:50:23.024Z,27.23
2018-05-14T07:52:57.528Z,32.27
2018-05-14T07:55:33.357Z,30.03
2018-05-14T07:58:07.692Z,29.43
2018-05-14T08:00:41.959Z,25.43
2018-05-14T08:03:17.172Z,27.97
2018-05-14T08:05:51.596Z,28.23
2018-05-14T08:08:26.090Z,30.63
2018-05-14T08:11:00.471Z,28.37
2018-05-14T08:13:34.785Z,28.53
2018-05-14T08:16:09.221Z,25.53
2018-05-14T08:18:43.697Z,23.23
2018-05-14T08:21:18.107Z,24.13
2018-05-14T08:23:52.542Z,22.30
2018-05-14T08:26:26.942Z,18.00
2018-05-14T08:29:01.465Z,15.17
2018-05-14T08:31:36.081Z,22.37
2018-05-14T08:34:10.491Z,22.47
2018-05-14T08:36:45.016Z,21.53
2018-05-14T08:39:20.165Z,20.80
2018-05-14T08:41:54.576Z,24.30
2018-05-14T08:44:28.912Z,22.53
2018-05-14T08:47:03.425Z,21.13
2018-05-14T08:49:37.918Z,17.13
2018-05-14T08:52:12.295Z,19.37
2018-05-14T09:07:12.257Z,12.73
2018-05-14T09:09:46.781Z,19.23
2018-05-14T09:12:21.094Z,17.50
2018-05-14T09:14:55.596Z,16.67
2018-05-14T09:17:30.864Z,19.10
2018-05-14T09:20:05.350Z,17.07
2018-05-14T09:22:39.724Z,15.23
2018-05-14T09:25:14.112Z,15.67
2018-05-14T09:27:48.531Z,19.83
2018-05-14T09:30:22.846Z,13.27
2018-05-14T09:32:57.144Z,15.40
2018-05-14T09:35:31.489Z,16.77
2018-05-14T09:38:05.796Z,13.73
2018-05-14T09:40:40.196Z,13.90
2018-05-14T09:43:14.536Z,11.90
2018-05-14T09:45:49.108Z,10.47
2018-05-14T09:48:23.414Z,13.73
2018-05-14T09:50:57.729Z,11.07
2018-05-14T09:53:32.164Z,12.43
2018-05-14T09:56:06.545Z,13.17
2018-05-14T09:58:40.896Z,12.23
2018-05-14T10:01:15.508Z,12.23
2018-05-14T10:03:49.953Z,12.63
2018-05-14T10:06:24.283Z,14.37
2018-05-14T10:08:59.356Z,11.70
2018-05-14T10:11:33.695Z,12.37
2018-05-14T10:14:07.996Z,18.67
2018-05-14T10:16:42.351Z,13.67
2018-05-14T10:19:16.732Z,13.17
2018-05-14T10:21:51.077Z,11.47
2018-05-14T10:24:25.600Z,9.33
2018-05-14T10:27:00.216Z,10.83
2018-05-14T10:29:34.620Z,9.63
2018-05-14T10:32:09.051Z,8.90
2018-05-14T10:34:43.359Z,10.73
2018-05-14T10:37:17.766Z,9.47
2018-05-14T10:39:52.221Z,10.43
2018-05-14T10:42:26.503Z,13.17
2018-05-14T10:45:00.884Z,9.70
2018-05-14T10:47:35.376Z,12.53
2018-05-14T10:50:09.733Z,10.07
2018-05-14T10:52:44.945Z,8.30
2018-05-14T10:55:19.367Z,9.30
2018-05-14T10:57:53.692Z,9.73
2018-05-14T11:00:28.127Z,9.87
2018-05-14T11:03:02.653Z,18.23
2018-05-14T11:05:37.015Z,9.43
2018-05-14T11:08:11.435Z,9.67
2018-05-14T11:10:46.509Z,9.07
2018-05-14T11:13:20.817Z,7.90
2018-05-14T11:15:55.855Z,10.03
2018-05-14T11:18:30.193Z,9.13
2018-05-14T11:21:05.442Z,15.53
2018-05-14T11:23:39.754Z,8.03
2018-05-14T11:26:14.252Z,8.50
2018-05-14T11:28:48.695Z,5.70
2018-05-14T11:31:22.997Z,6.87
2018-05-14T11:33:57.291Z,12.30
2018-05-14T11:36:31.688Z,8.87
2018-05-14T11:39:06.141Z,10.90
2018-05-14T11:41:40.592Z,20.50
2018-05-14T11:44:14.877Z,14.37
2018-05-14T11:46:49.204Z,6.77
2018-05-14T11:49:23.616Z,6.03
2018-05-14T11:51:57.948Z,7.23
2018-05-14T11:54:32.471Z,7.83
2018-05-14T11:57:06.760Z,5.83
2018-05-14T11:59:41.100Z,5.57
2018-05-14T12:02:15.516Z,4.57
2018-05-14T12:04:49.911Z,5.80
2018-05-14T12:07:25.146Z,8.83
2018-05-14T12:09:59.755Z,8.13
2018-05-14T12:12:34.085Z,7.20
2018-05-14T12:15:08.395Z,5.37
2018-05-14T12:17:42.720Z,8.57
2018-05-14T12:20:17.102Z,6.73
2018-05-14T12:22:51.436Z,6.07
2018-05-14T12:25:26.515Z,6.43
2018-05-14T12:28:01.197Z,6.37
2018-05-14T12:30:35.727Z,7.60
2018-05-14T12:33:09.996Z,4.47
2018-05-14T12:35:44.329Z,4.90
2018-05-14T12:38:18.708Z,9.67
2018-05-14T12:40:53.117Z,8.47
2018-05-14T12:43:27.479Z,5.07
2018-05-14T12:46:01.967Z,8.67
2018-05-14T12:48:36.268Z,6.87
2018-05-14T12:51:10.760Z,6.17
2018-05-14T12:53:46.637Z,7.53
2018-05-14T12:56:21.841Z,7.17
2018-05-14T12:58:56.151Z,5.53
2018-05-14T13:01:30.581Z,7.03
2018-05-14T13:04:05.043Z,5.87
2018-05-14T13:06:39.890Z,5.83
2018-05-14T13:09:15.088Z,6.03
2018-05-14T13:11:49.460Z,4.07
2018-05-14T13:14:24.704Z,5.50
2018-05-14T13:16:59.201Z,8.40
2018-05-14T13:19:33.584Z,4.83
2018-05-14T13:22:08.082Z,6.27
2018-05-14T13:24:42.401Z,5.03
2018-05-14T13:27:16.821Z,5.00
2018-05-14T13:29:51.268Z,7.60
2018-05-14T13:32:25.798Z,4.57
2018-05-14T13:35:00.080Z,3.53
2018-05-14T13:37:34.531Z,4.97
2018-05-14T13:40:08.756Z,7.73
2018-05-14T13:42:43.180Z,2.73
2018-05-14T13:45:17.482Z,8.53
2018-05-14T13:47:51.789Z,4.57
2018-05-14T13:50:26.128Z,5.20
2018-05-14T13:53:00.699Z,8.17
2018-05-14T13:55:35.757Z,3.37
2018-05-14T13:58:10.123Z,5.10
2018-05-14T14:00:44.372Z,6.87
2018-05-14T14:03:18.827Z,6.20
2018-05-14T14:05:53.294Z,6.63
2018-05-14T14:08:27.681Z,3.90
2018-05-14T14:11:02.048Z,5.63
2018-05-14T14:13:36.486Z,6.07
2018-05-14T14:16:10.805Z,7.17
2018-05-14T14:18:45.166Z,5.87
2018-05-14T14:21:19.778Z,3.07
2018-05-14T14:23:54.251Z,6.37
2018-05-14T14:26:28.413Z,3.90
2018-05-14T14:29:02.747Z,6.13
2018-05-14T14:31:37.175Z,6.40
2018-05-14T14:34:11.470Z,5.30
2018-05-14T14:36:45.912Z,4.10
2018-05-14T14:39:20.318Z,5.00
2018-05-14T14:41:54.717Z,4.07
2018-05-14T14:44:29.166Z,3.27
2018-05-14T14:47:03.523Z,3.20
2018-05-14T14:49:37.997Z,3.30
2018-05-14T14:52:12.343Z,4.77
2018-05-14T14:54:46.808Z,4.90
2018-05-14T14:57:21.368Z,3.13
2018-05-14T14:59:55.914Z,5.87
2018-05-14T15:02:30.431Z,3.97
2018-05-14T15:05:04.972Z,3.47
2018-05-14T15:07:39.465Z,4.10
2018-05-14T15:10:13.974Z,4.60
2018-05-14T15:12:48.279Z,4.77
2018-05-14T15:15:22.630Z,8.73
2018-05-14T15:17:56.885Z,3.83
2018-05-14T15:20:31.273Z,4.17
2018-05-14T15:23:05.650Z,3.93
2018-05-14T15:25:40.006Z,3.57
2018-05-14T15:28:14.514Z,3.53
2018-05-14T15:30:49.197Z,6.10
2018-05-14T15:33:23.486Z,6.20
2018-05-14T15:35:57.959Z,7.03
2018-05-14T15:38:33.230Z,4.27
2018-05-14T15:41:09.265Z,5.83
2018-05-14T15:43:44.003Z,3.83
2018-05-14T15:46:18.419Z,3.87
2018-05-14T15:48:52.685Z,4.33
2018-05-14T15:51:27.055Z,5.37
2018-05-14T15:54:01.497Z,5.60
2018-05-14T15:56:36.019Z,7.10
2018-05-14T15:59:10.247Z,4.67
2018-05-14T16:01:44.807Z,4.23
2018-05-14T16:04:19.853Z,5.47
2018-05-14T16:06:54.307Z,4.73
2018-05-14T16:09:28.737Z,6.30
2018-05-14T16:12:04.066Z,7.47
2018-05-14T16:14:38.487Z,3.80
2018-05-14T16:17:13.104Z,4.40
2018-05-14T16:19:47.490Z,6.90
2018-05-14T16:22:21.830Z,4.57
2018-05-14T16:24:56.971Z,4.13
2018-05-14T16:27:31.419Z,6.57
2018-05-14T16:30:05.844Z,6.50
2018-05-14T16:32:40.245Z,4.30
2018-05-14T16:35:14.781Z,7.07
2018-05-14T16:37:49.885Z,7.43
2018-05-14T16:40:24.224Z,11.10
2018-05-14T16:42:58.556Z,5.00
2018-05-14T16:45:32.876Z,4.57
2018-05-14T16:48:07.166Z,5.63
2018-05-14T16:50:41.603Z,8.37
2018-05-14T16:53:15.934Z,7.57
2018-05-14T16:55:50.247Z,7.37
2018-05-14T16:58:24.563Z,11.17
2018-05-14T17:00:58.985Z,4.77
2018-05-14T17:03:33.293Z,6.47
2018-05-14T17:06:07.835Z,7.97
2018-05-14T17:08:42.979Z,4.30
2018-05-14T17:11:17.272Z,6.27
2018-05-14T17:13:51.822Z,6.60
2018-05-14T17:16:26.262Z,10.17
2018-05-14T17:19:00.637Z,10.50
2018-05-14T17:21:35.265Z,6.03
2018-05-14T17:24:09.541Z,5.80
2018-05-14T17:26:43.943Z,5.20
2018-05-14T17:29:19.846Z,4.33
2018-05-14T17:31:54.319Z,7.37
2018-05-14T17:34:28.892Z,7.10
2018-05-14T17:37:03.931Z,9.83
2018-05-14T17:39:38.384Z,17.27
2018-05-14T17:42:12.704Z,8.20
2018-05-14T17:44:47.339Z,7.20
2018-05-14T17:47:21.756Z,4.90
2018-05-14T17:49:56.065Z,7.73
2018-05-14T17:52:30.346Z,6.87
2018-05-14T17:55:04.802Z,8.10
2018-05-14T17:57:39.255Z,4.53
2018-05-14T18:00:13.689Z,8.73
2018-05-14T18:02:48.857Z,5.87
2018-05-14T18:05:23.260Z,6.33
2018-05-14T18:07:57.691Z,4.47
2018-05-14T18:10:32.063Z,9.20
2018-05-14T18:13:06.437Z,8.93
2018-05-14T18:15:40.884Z,7.97
2018-05-14T18:18:15.277Z,8.23
2018-05-14T18:20:49.666Z,4.60
2018-05-14T18:23:24.042Z,5.27
2018-05-14T18:29:05.035Z,6.07
2018-05-14T18:31:45.131Z,6.67
2018-05-14T18:34:19.553Z,10.13
2018-05-14T18:36:54.643Z,7.37
2018-05-14T18:39:29.035Z,5.93
2018-05-14T18:42:03.441Z,5.33
2018-05-14T18:44:37.775Z,9.00
2018-05-14T18:47:12.138Z,7.50
2018-05-14T18:49:46.630Z,8.40
2018-05-14T18:52:21.090Z,10.70
2018-05-14T18:54:55.421Z,7.37
2018-05-14T18:57:29.805Z,7.87
2018-05-14T19:00:04.161Z,10.93
2018-05-14T19:02:38.765Z,7.13
2018-05-14T19:05:13.141Z,6.63
2018-05-14T19:07:47.447Z,5.60
2018-05-14T19:10:27.730Z,9.73
2018-05-14T19:13:02.020Z,9.47
2018-05-14T19:15:42.010Z,11.50
2018-05-14T19:18:37.887Z,5.13
2018-05-14T19:21:13.567Z,5.53
2018-05-14T19:23:53.677Z,5.97
2018-05-14T19:26:28.191Z,6.57
2018-05-14T19:29:08.175Z,8.10
2018-05-14T19:31:43.333Z,6.70
2018-05-14T19:34:23.582Z,8.20
2018-05-14T19:36:58.008Z,7.23
2018-05-14T19:39:38.160Z,6.20
2018-05-14T19:42:12.590Z,5.27
2018-05-14T19:44:46.867Z,8.47
2018-05-14T19:47:21.199Z,7.07
2018-05-14T19:49:55.678Z,8.50
2018-05-14T19:52:29.963Z,6.57
2018-05-14T19:55:04.522Z,5.93
2018-05-14T19:57:39.714Z,5.63
2018-05-14T20:00:14.018Z,9.30
2018-05-14T20:02:48.348Z,6.03
2018-05-14T20:05:22.673Z,6.07
2018-05-14T20:07:57.012Z,7.90
2018-05-14T20:10:31.311Z,7.90
2018-05-14T20:13:05.653Z,8.87
2018-05-14T20:15:41.273Z,4.80
2018-05-14T20:18:15.593Z,5.57
2018-05-14T20:20:49.936Z,4.80
2018-05-14T20:23:24.419Z,7.30
2018-05-14T20:25:58.798Z,6.70
2018-05-14T20:28:33.187Z,5.30
2018-05-14T20:31:07.636Z,6.53
2018-05-14T20:33:42.010Z,4.83
2018-05-14T20:36:16.325Z,7.33
2018-05-14T20:38:50.815Z,5.13
2018-05-14T20:41:26.112Z,7.03
2018-05-14T20:44:00.531Z,6.20
2018-05-14T20:46:34.954Z,4.87
2018-05-14T20:49:09.269Z,6.30
2018-05-14T20:51:43.613Z,6.10
2018-05-14T20:54:17.920Z,5.97
2018-05-14T20:56:52.427Z,6.37
2018-05-14T20:59:26.751Z,7.27
2018-05-14T21:02:01.077Z,6.57
2018-05-14T21:04:35.402Z,6.67
2018-05-14T21:07:09.848Z,11.30
2018-05-14T21:09:44.224Z,3.83
2018-05-14T21:12:18.571Z,10.33
2018-05-14T21:14:53.035Z,5.93
2018-05-14T21:17:27.444Z,11.67
2018-05-14T21:20:01.849Z,4.70
2018-05-14T21:22:36.125Z,5.17
2018-05-14T21:25:11.244Z,4.97
2018-05-14T21:27:46.387Z,8.97
2018-05-14T21:30:20.825Z,6.37
2018-05-14T21:32:55.125Z,5.53
2018-05-14T21:35:29.562Z,5.57
2018-05-14T21:38:03.991Z,7.00
2018-05-14T21:40:38.539Z,7.07
2018-05-14T21:43:13.002Z,6.70
2018-05-14T21:45:47.524Z,6.70
2018-05-14T21:48:21.876Z,8.33
2018-05-14T21:50:56.173Z,7.30
2018-05-14T21:53:30.617Z,9.77
2018-05-14T21:56:04.919Z,5.17
2018-05-14T21:58:39.476Z,5.50
2018-05-14T22:01:13.866Z,6.87
2018-05-14T22:03:48.186Z,4.53
2018-05-14T22:06:22.518Z,6.40
2018-05-14T22:08:56.952Z,3.80
2018-05-14T22:11:31.244Z,8.00
2018-05-14T22:14:05.656Z,5.73
2018-05-14T22:16:39.963Z,7.07
2018-05-14T22:19:14.412Z,7.87
2018-05-14T22:21:48.940Z,5.83
2018-05-14T22:24:23.231Z,5.43
2018-05-14T22:26:57.758Z,6.80
2018-05-14T22:29:32.206Z,5.13
2018-05-14T22:32:06.508Z,11.37
2018-05-14T22:34:40.939Z,5.03
2018-05-14T22:37:15.309Z,5.73
2018-05-14T22:39:50.428Z,5.70
2018-05-14T22:42:25.644Z,5.63
2018-05-14T22:44:59.913Z,9.10
2018-05-14T22:47:34.265Z,5.07
2018-05-14T22:50:08.757Z,9.83
2018-05-14T22:52:43.181Z,7.40
2018-05-14T22:55:17.868Z,5.13
2018-05-14T22:57:52.228Z,7.00
2018-05-14T23:00:26.682Z,6.57
2018-05-14T23:03:01.057Z,6.73
2018-05-14T23:05:35.469Z,7.83
2018-05-14T23:08:09.861Z,4.37
2018-05-14T23:10:44.321Z,6.33
2018-05-14T23:13:18.819Z,5.30
2018-05-14T23:15:53.241Z,4.93
2018-05-14T23:18:27.598Z,5.27
2018-05-14T23:21:01.976Z,6.80
2018-05-14T23:23:36.469Z,6.50
2018-05-14T23:26:11.027Z,5.23
2018-05-14T23:28:45.453Z,5.70
2018-05-14T23:31:19.943Z,7.70
2018-05-14T23:33:55.193Z,4.73
2018-05-14T23:36:30.385Z,5.27
2018-05-14T23:39:04.741Z,5.00
2018-05-14T23:41:39.225Z,6.47
2018-05-14T23:44:13.596Z,8.20
2018-05-14T23:46:48.044Z,7.40
2018-05-14T23:49:22.409Z,4.07
2018-05-14T23:51:56.837Z,8.13
2018-05-14T23:54:31.268Z,5.00
2018-05-14T23:57:06.381Z,8.03
2018-05-14T23:59:40.846Z,10.30
